Time;durP1;ratioP1;P1;durP2;ratioP2;P2;SDS_P1;SDS_P2;PMS_P1;PMS_P2;Temp;Humidity;BMP_temperature;BMP_pressure;BME280_temperature;BME280_humidity;BME280_pressure;Samples;Min_cycle;Max_cycle;Signal;HPM_P1;HPM_P2
2023/07/31 00:02:13;;;;;;;;;;;16.20;99.90;;;;;;4951841;28;19939;-43
2023/07/31 00:04:40;;;;;;;;;;;16.20;99.90;;;;;;4972175;28;20304;-44
2023/07/31 00:07:06;;;;;;;;;;;16.20;99.90;;;;;;4972470;28;19985;-42
2023/07/31 00:09:33;;;;;;;;;;;16.10;99.90;;;;;;4956953;28;19964;-43
2023/07/31 00:12:00;;;;;;;;;;;16.10;99.90;;;;;;4955678;28;19929;-42
2023/07/31 00:14:28;;;;;;;;;;;16.10;99.90;;;;;;4972257;28;19952;-43
2023/07/31 00:16:54;;;;;;;;;;;16.10;99.90;;;;;;4955813;28;19983;-43
2023/07/31 00:19:21;;;;;;;;;;;16.10;99.90;;;;;;4972225;28;20433;-42
2023/07/31 00:21:48;;;;;;;;;;;16.00;99.90;;;;;;4973153;28;19922;-42
2023/07/31 00:24:14;;;;;;;;;;;16.00;99.90;;;;;;4956226;28;19984;-42
2023/07/31 00:26:41;;;;;;;;;;;16.00;99.90;;;;;;4972606;28;20416;-42
2023/07/31 00:29:08;;;;;;;;;;;16.00;99.90;;;;;;4955316;28;20267;-42
2023/07/31 00:31:36;;;;;;;;;;;16.00;99.90;;;;;;4955367;28;19929;-43
2023/07/31 00:34:03;;;;;;;;;;;16.00;99.90;;;;;;4972133;28;20009;-43
2023/07/31 00:36:30;;;;;;;;;;;16.00;99.90;;;;;;4956370;28;19994;-43
2023/07/31 00:38:56;;;;;;;;;;;16.00;99.90;;;;;;4955475;28;19956;-43
2023/07/31 00:41:23;;;;;;;;;;;15.90;99.90;;;;;;4954657;28;19929;-42
2023/07/31 00:43:50;;;;;;;;;;;15.90;99.90;;;;;;4971966;28;19929;-43
2023/07/31 00:46:16;;;;;;;;;;;15.90;99.90;;;;;;4963739;28;19983;-43
2023/07/31 00:48:44;;;;;;;;;;;15.90;99.90;;;;;;4992790;28;19926;-42
2023/07/31 00:51:11;;;;;;;;;;;15.90;99.90;;;;;;4992920;28;19964;-42
2023/07/31 00:53:38;;;;;;;;;;;15.90;99.90;;;;;;4992662;28;20404;-42
2023/07/31 00:56:05;;;;;;;;;;;15.90;99.90;;;;;;4985893;28;19928;-43
2023/07/31 00:58:31;;;;;;;;;;;15.90;99.90;;;;;;4954029;29;19998;-43
2023/07/31 01:00:58;;;;;;;;;;;15.90;99.90;;;;;;4979966;28;20011;-43
2023/07/31 01:03:25;;;;;;;;;;;15.90;99.90;;;;;;4986883;28;19936;-42
2023/07/31 01:05:55;;;;;;;;;;;15.80;99.90;;;;;;4994258;28;19963;-43
2023/07/31 01:08:24;;;;;;;;;;;15.80;99.90;;;;;;4994466;28;20381;-41
2023/07/31 01:10:51;;;;;;;;;;;15.90;99.90;;;;;;4995310;28;19936;-42
2023/07/31 01:13:18;;;;;;;;;;;15.80;99.90;;;;;;4959073;28;19922;-43
2023/07/31 01:15:45;;;;;;;;;;;15.80;99.90;;;;;;4990243;28;20004;-43
2023/07/31 01:18:11;;;;;;;;;;;15.80;99.90;;;;;;4993010;28;19926;-43
2023/07/31 01:20:38;;;;;;;;;;;15.80;99.90;;;;;;4975244;28;20024;-43
2023/07/31 01:23:26;;;;;;;;;;;15.80;99.90;;;;;;4994319;28;20416;-43
2023/07/31 01:25:55;;;;;;;;;;;15.90;99.90;;;;;;4995894;28;19960;-43
2023/07/31 01:28:24;;;;;;;;;;;15.90;99.90;;;;;;4976152;28;19922;-43
2023/07/31 01:30:51;;;;;;;;;;;15.80;99.90;;;;;;4972046;28;19999;-43
2023/07/31 01:33:17;;;;;;;;;;;15.80;99.90;;;;;;4993851;28;19956;-43
2023/07/31 01:35:45;;;;;;;;;;;15.80;99.90;;;;;;4991253;28;19969;-44
2023/07/31 01:38:11;;;;;;;;;;;15.80;99.90;;;;;;4994488;28;19949;-43
2023/07/31 01:40:38;;;;;;;;;;;15.80;99.90;;;;;;4993638;28;19967;-42
2023/07/31 01:43:06;;;;;;;;;;;15.80;99.90;;;;;;4992765;28;20373;-43
2023/07/31 01:45:33;;;;;;;;;;;15.80;99.90;;;;;;4993163;28;19963;-43
2023/07/31 01:47:59;;;;;;;;;;;15.80;99.90;;;;;;4992611;28;20309;-42
2023/07/31 01:50:26;;;;;;;;;;;15.80;99.90;;;;;;4976863;28;19960;-43
2023/07/31 01:52:53;;;;;;;;;;;15.80;99.90;;;;;;4995395;28;19929;-42
2023/07/31 01:55:19;;;;;;;;;;;15.80;99.90;;;;;;4975300;28;19921;-44
2023/07/31 01:57:46;;;;;;;;;;;15.80;99.90;;;;;;4993355;28;19945;-43
2023/07/31 02:00:14;;;;;;;;;;;15.80;99.90;;;;;;4993129;28;19921;-42
2023/07/31 02:02:41;;;;;;;;;;;15.80;99.90;;;;;;4976169;28;19962;-41
2023/07/31 02:05:08;;;;;;;;;;;15.80;99.90;;;;;;4995299;28;20377;-43
2023/07/31 02:07:34;;;;;;;;;;;15.80;99.90;;;;;;4993008;28;19965;-43
2023/07/31 02:10:01;;;;;;;;;;;15.80;99.90;;;;;;4991877;28;19959;-43
2023/07/31 02:12:30;;;;;;;;;;;15.80;99.90;;;;;;4992955;28;19998;-43
2023/07/31 02:14:57;;;;;;;;;;;15.80;99.90;;;;;;4991936;28;19930;-42
2023/07/31 02:17:25;;;;;;;;;;;15.80;99.90;;;;;;4995030;28;19921;-42
2023/07/31 02:19:51;;;;;;;;;;;15.80;99.90;;;;;;4975993;28;20424;-43
2023/07/31 02:22:18;;;;;;;;;;;15.80;99.90;;;;;;4992833;28;19921;-42
2023/07/31 02:24:45;;;;;;;;;;;15.80;99.90;;;;;;4968206;28;19969;-43
2023/07/31 02:27:11;;;;;;;;;;;15.80;99.90;;;;;;4945122;28;19992;-42
2023/07/31 02:29:38;;;;;;;;;;;15.90;99.90;;;;;;4991567;28;19940;-43
2023/07/31 02:32:05;;;;;;;;;;;15.90;99.90;;;;;;4955504;28;20376;-41
2023/07/31 02:34:33;;;;;;;;;;;15.90;99.90;;;;;;4964987;28;20433;-43
2023/07/31 02:36:59;;;;;;;;;;;15.90;99.90;;;;;;4982533;28;20012;-43
2023/07/31 02:39:26;;;;;;;;;;;15.90;99.90;;;;;;4994521;28;19968;-43
2023/07/31 02:41:53;;;;;;;;;;;15.90;99.90;;;;;;4991676;28;19984;-42
2023/07/31 02:44:20;;;;;;;;;;;16.00;99.90;;;;;;4974600;28;19936;-44
2023/07/31 02:46:47;;;;;;;;;;;15.90;99.90;;;;;;4975381;28;19964;-43
2023/07/31 02:49:14;;;;;;;;;;;16.00;99.90;;;;;;4975998;28;19921;-43
2023/07/31 02:51:42;;;;;;;;;;;16.00;99.90;;;;;;4992248;28;19926;-44
2023/07/31 02:54:09;;;;;;;;;;;16.00;99.90;;;;;;4994371;28;19996;-44
2023/07/31 02:56:35;;;;;;;;;;;16.00;99.90;;;;;;4992224;28;19952;-43
2023/07/31 02:59:02;;;;;;;;;;;16.00;99.90;;;;;;4991519;28;19942;-43
2023/07/31 03:01:29;;;;;;;;;;;16.00;99.90;;;;;;4966207;28;19964;-43
2023/07/31 03:03:55;;;;;;;;;;;16.00;99.90;;;;;;4969839;28;20334;-43
2023/07/31 03:06:22;;;;;;;;;;;16.00;99.90;;;;;;4973867;28;19964;-42
2023/07/31 03:08:50;;;;;;;;;;;16.00;99.90;;;;;;4979545;28;19921;-42
2023/07/31 03:11:17;;;;;;;;;;;16.00;99.90;;;;;;4990940;28;20380;-43
2023/07/31 03:13:43;;;;;;;;;;;16.00;99.90;;;;;;4992791;28;20018;-42
2023/07/31 03:16:10;;;;;;;;;;;16.00;99.90;;;;;;4991841;28;19922;-43
2023/07/31 03:18:37;;;;;;;;;;;16.00;99.90;;;;;;4989848;28;19921;-43
2023/07/31 03:21:03;;;;;;;;;;;16.00;99.90;;;;;;4991724;28;19965;-42
2023/07/31 03:23:30;;;;;;;;;;;16.00;99.90;;;;;;4974159;28;19933;-42
2023/07/31 03:25:58;;;;;;;;;;;16.00;99.90;;;;;;4992740;28;19972;-43
2023/07/31 03:28:25;;;;;;;;;;;16.00;99.90;;;;;;4991749;28;20340;-43
2023/07/31 03:30:52;;;;;;;;;;;16.10;99.90;;;;;;4992512;28;19991;-45
2023/07/31 03:33:18;;;;;;;;;;;16.10;99.90;;;;;;4992012;28;19960;-43
2023/07/31 03:35:45;;;;;;;;;;;16.10;99.90;;;;;;4992019;28;19999;-44
2023/07/31 03:38:12;;;;;;;;;;;16.10;99.90;;;;;;4993556;28;20420;-46
2023/07/31 03:40:38;;;;;;;;;;;16.20;99.90;;;;;;4991974;28;19958;-43
2023/07/31 03:43:06;;;;;;;;;;;16.20;99.90;;;;;;4991618;28;19938;-43
2023/07/31 03:45:33;;;;;;;;;;;16.20;99.90;;;;;;4991443;28;19921;-43
2023/07/31 03:48:00;;;;;;;;;;;16.20;99.90;;;;;;4974841;28;19926;-41
2023/07/31 03:50:26;;;;;;;;;;;16.20;99.90;;;;;;4993173;28;19943;-43
2023/07/31 03:52:53;;;;;;;;;;;16.20;99.90;;;;;;4974465;28;20322;-42
2023/07/31 03:55:21;;;;;;;;;;;16.20;99.90;;;;;;4991747;28;19955;-41
2023/07/31 03:57:48;;;;;;;;;;;16.30;99.90;;;;;;4991285;28;19929;-43
2023/07/31 04:00:16;;;;;;;;;;;16.30;99.90;;;;;;4976242;28;19936;-42
2023/07/31 04:02:42;;;;;;;;;;;16.30;99.90;;;;;;4973889;28;20363;-42
2023/07/31 04:05:10;;;;;;;;;;;16.30;99.90;;;;;;4993207;28;19961;-42
2023/07/31 04:07:37;;;;;;;;;;;16.30;99.90;;;;;;4980280;28;19956;-42
2023/07/31 04:10:04;;;;;;;;;;;16.30;99.90;;;;;;4966751;28;20312;-42
2023/07/31 04:12:31;;;;;;;;;;;16.30;99.90;;;;;;4974245;28;19922;-42
2023/07/31 04:14:57;;;;;;;;;;;16.40;99.90;;;;;;4991079;28;19958;-41
2023/07/31 04:17:25;;;;;;;;;;;16.30;99.90;;;;;;4992933;28;19936;-42
2023/07/31 04:19:52;;;;;;;;;;;16.30;99.90;;;;;;4988103;28;20021;-42
2023/07/31 04:22:19;;;;;;;;;;;16.30;99.90;;;;;;4954392;29;19969;-43
2023/07/31 04:24:46;;;;;;;;;;;16.30;99.90;;;;;;4937321;29;19945;-43
2023/07/31 04:27:12;;;;;;;;;;;16.30;99.90;;;;;;4937345;29;20270;-45
2023/07/31 04:29:39;;;;;;;;;;;16.40;99.90;;;;;;4983933;28;19940;-42
2023/07/31 04:32:06;;;;;;;;;;;16.40;99.90;;;;;;4992099;28;20051;-42
2023/07/31 04:34:34;;;;;;;;;;;16.40;99.90;;;;;;4975771;28;19943;-43
2023/07/31 04:37:01;;;;;;;;;;;16.40;99.90;;;;;;4975552;28;20382;-44
2023/07/31 04:39:28;;;;;;;;;;;16.40;99.90;;;;;;4979024;28;19943;-43
2023/07/31 04:41:54;;;;;;;;;;;16.50;99.90;;;;;;4996666;28;19967;-43
2023/07/31 04:44:21;;;;;;;;;;;16.50;99.90;;;;;;4995810;28;20321;-43
2023/07/31 04:46:48;;;;;;;;;;;16.50;99.90;;;;;;4996196;28;19921;-42
2023/07/31 04:49:14;;;;;;;;;;;16.50;99.90;;;;;;4992069;28;19966;-44
2023/07/31 04:51:42;;;;;;;;;;;16.50;99.90;;;;;;4996502;28;20305;-43
2023/07/31 04:54:09;;;;;;;;;;;16.60;99.90;;;;;;4979162;28;19941;-43
2023/07/31 04:56:36;;;;;;;;;;;16.60;99.90;;;;;;4995084;28;19959;-43
2023/07/31 04:59:02;;;;;;;;;;;16.60;99.90;;;;;;4995264;28;19968;-45
2023/07/31 05:01:29;;;;;;;;;;;16.60;99.90;;;;;;4977256;28;19922;-43
2023/07/31 05:03:56;;;;;;;;;;;16.60;99.90;;;;;;4994653;28;19956;-43
2023/07/31 05:06:22;;;;;;;;;;;16.60;99.90;;;;;;4993857;28;20341;-47
2023/07/31 05:08:50;;;;;;;;;;;16.60;99.90;;;;;;4979197;28;19925;-43
2023/07/31 05:11:17;;;;;;;;;;;16.60;99.90;;;;;;4994780;28;19940;-42
2023/07/31 05:13:44;;;;;;;;;;;16.70;99.90;;;;;;4994223;28;19926;-44
2023/07/31 05:16:11;;;;;;;;;;;16.70;99.90;;;;;;4992898;28;20305;-43
2023/07/31 05:18:37;;;;;;;;;;;16.70;99.90;;;;;;4977075;28;19947;-43
2023/07/31 05:21:04;;;;;;;;;;;16.70;99.90;;;;;;4995990;28;19945;-43
2023/07/31 05:23:32;;;;;;;;;;;16.70;99.90;;;;;;4993908;28;19964;-44
2023/07/31 05:26:04;;;;;;;;;;;16.70;99.90;;;;;;4992919;28;20063;-44
2023/07/31 05:28:31;;;;;;;;;;;16.70;99.90;;;;;;4978966;28;19922;-44
2023/07/31 05:30:59;;;;;;;;;;;16.70;99.90;;;;;;4976799;28;19929;-42
2023/07/31 05:33:26;;;;;;;;;;;16.70;99.90;;;;;;4993338;28;20313;-43
2023/07/31 05:35:53;;;;;;;;;;;16.70;99.90;;;;;;4995748;28;19960;-43
2023/07/31 05:38:19;;;;;;;;;;;16.70;99.90;;;;;;4993650;28;19936;-43
2023/07/31 05:40:46;;;;;;;;;;;16.70;99.90;;;;;;4994095;28;19921;-43
2023/07/31 05:43:14;;;;;;;;;;;16.70;99.90;;;;;;4993589;28;19939;-44
2023/07/31 05:45:41;;;;;;;;;;;16.70;99.90;;;;;;4976316;28;20392;-42
2023/07/31 05:48:07;;;;;;;;;;;16.70;99.90;;;;;;4969321;28;19963;-42
2023/07/31 05:50:34;;;;;;;;;;;16.80;99.90;;;;;;4975142;28;20397;-43
2023/07/31 05:53:01;;;;;;;;;;;16.70;99.90;;;;;;4952048;28;19986;-42
2023/07/31 05:55:27;;;;;;;;;;;16.70;99.90;;;;;;4956375;29;19966;-43
2023/07/31 05:57:54;;;;;;;;;;;16.80;99.90;;;;;;4956729;29;19930;-43
2023/07/31 06:00:22;;;;;;;;;;;16.80;99.90;;;;;;4967738;28;20000;-43
2023/07/31 06:02:49;;;;;;;;;;;16.80;99.90;;;;;;4957512;28;19928;-45
2023/07/31 06:05:15;;;;;;;;;;;16.80;99.90;;;;;;4974363;28;19931;-43
2023/07/31 06:07:42;;;;;;;;;;;16.80;99.90;;;;;;4975479;28;19937;-43
2023/07/31 06:10:09;;;;;;;;;;;16.80;99.90;;;;;;4974861;28;19944;-44
2023/07/31 06:12:36;;;;;;;;;;;16.80;99.90;;;;;;4973256;28;19938;-44
2023/07/31 06:15:03;;;;;;;;;;;16.80;99.90;;;;;;4957045;28;19956;-44
2023/07/31 06:17:31;;;;;;;;;;;16.80;99.90;;;;;;4974159;28;19932;-43
2023/07/31 06:19:58;;;;;;;;;;;16.90;99.90;;;;;;4956425;29;20601;-44
2023/07/31 06:22:24;;;;;;;;;;;16.80;99.90;;;;;;4956854;28;20367;-44
2023/07/31 06:24:51;;;;;;;;;;;16.90;99.90;;;;;;4973791;28;19994;-43
2023/07/31 06:27:18;;;;;;;;;;;16.90;99.90;;;;;;4975487;28;19930;-43
2023/07/31 06:29:44;;;;;;;;;;;16.90;99.90;;;;;;4956857;28;19936;-43
2023/07/31 06:32:11;;;;;;;;;;;16.90;99.90;;;;;;4958250;28;19946;-43
2023/07/31 06:34:39;;;;;;;;;;;16.90;99.90;;;;;;4974723;28;19945;-43
2023/07/31 06:37:06;;;;;;;;;;;16.90;99.90;;;;;;4957967;28;19921;-44
2023/07/31 06:39:33;;;;;;;;;;;16.90;99.90;;;;;;4956959;28;19938;-42
2023/07/31 06:41:59;;;;;;;;;;;16.90;99.90;;;;;;4975139;28;19992;-43
2023/07/31 06:44:26;;;;;;;;;;;16.90;99.90;;;;;;4971922;28;20374;-43
2023/07/31 06:46:53;;;;;;;;;;;16.90;99.90;;;;;;4988661;28;19922;-43
2023/07/31 06:49:19;;;;;;;;;;;16.90;99.90;;;;;;4994435;28;19936;-44
2023/07/31 06:51:47;;;;;;;;;;;16.90;99.90;;;;;;4994242;28;19922;-44
2023/07/31 06:54:14;;;;;;;;;;;16.90;99.90;;;;;;4994030;28;19922;-43
2023/07/31 06:56:41;;;;;;;;;;;16.90;99.90;;;;;;4976078;28;20338;-42
2023/07/31 06:59:07;;;;;;;;;;;16.90;99.90;;;;;;4977418;28;19921;-42
2023/07/31 07:01:34;;;;;;;;;;;16.90;99.90;;;;;;4990416;28;20030;-43
2023/07/31 07:04:01;;;;;;;;;;;16.90;99.90;;;;;;4994576;28;19936;-43
2023/07/31 07:06:27;;;;;;;;;;;16.90;99.90;;;;;;4991075;28;20295;-43
2023/07/31 07:08:55;;;;;;;;;;;16.90;99.90;;;;;;4994052;28;19921;-43
2023/07/31 07:11:22;;;;;;;;;;;16.90;99.90;;;;;;4992596;28;20381;-43
2023/07/31 07:13:49;;;;;;;;;;;17.00;99.90;;;;;;4994048;28;19936;-43
2023/07/31 07:16:16;;;;;;;;;;;17.00;99.90;;;;;;4993991;28;20427;-42
2023/07/31 07:18:42;;;;;;;;;;;17.00;99.90;;;;;;4976059;28;19956;-43
2023/07/31 07:21:09;;;;;;;;;;;17.00;99.90;;;;;;4993886;28;19964;-43
2023/07/31 07:23:35;;;;;;;;;;;17.00;99.90;;;;;;4991943;28;19956;-42
2023/07/31 07:26:03;;;;;;;;;;;17.00;99.90;;;;;;4992522;28;19926;-43
2023/07/31 07:28:30;;;;;;;;;;;17.00;99.90;;;;;;4993199;28;19922;-43
2023/07/31 07:30:58;;;;;;;;;;;17.10;99.90;;;;;;4976566;28;19962;-43
2023/07/31 07:33:24;;;;;;;;;;;17.10;99.90;;;;;;4975366;28;19922;-44
2023/07/31 07:35:51;;;;;;;;;;;17.10;99.90;;;;;;4993315;28;19959;-43
2023/07/31 07:38:19;;;;;;;;;;;17.10;99.90;;;;;;4974806;28;20004;-44
2023/07/31 07:40:46;;;;;;;;;;;17.10;99.90;;;;;;4992278;28;19929;-43
2023/07/31 07:43:14;;;;;;;;;;;17.10;99.90;;;;;;4975460;28;19921;-44
2023/07/31 07:45:41;;;;;;;;;;;17.10;99.90;;;;;;4993103;28;20337;-43
2023/07/31 07:48:08;;;;;;;;;;;17.10;99.90;;;;;;4976058;28;19922;-44
2023/07/31 07:50:34;;;;;;;;;;;17.20;99.90;;;;;;4976025;28;19995;-43
2023/07/31 07:53:01;;;;;;;;;;;17.20;99.90;;;;;;4991348;28;19936;-44
2023/07/31 07:55:28;;;;;;;;;;;17.20;99.90;;;;;;4992987;28;19922;-44
2023/07/31 07:57:54;;;;;;;;;;;17.30;99.90;;;;;;4989498;28;19984;-43
2023/07/31 08:00:22;;;;;;;;;;;17.30;99.90;;;;;;4968811;28;19933;-42
2023/07/31 08:02:49;;;;;;;;;;;17.30;99.90;;;;;;4990294;28;20370;-44
2023/07/31 08:05:17;;;;;;;;;;;17.30;99.90;;;;;;4991194;28;19922;-43
2023/07/31 08:07:44;;;;;;;;;;;17.40;99.90;;;;;;4975049;28;19925;-43
2023/07/31 08:10:10;;;;;;;;;;;17.40;99.90;;;;;;4992004;28;19941;-43
2023/07/31 08:12:37;;;;;;;;;;;17.40;99.90;;;;;;4975749;28;19944;-43
2023/07/31 08:15:04;;;;;;;;;;;17.40;99.90;;;;;;4995254;28;19929;-44
2023/07/31 08:17:32;;;;;;;;;;;17.40;99.90;;;;;;4995791;28;20432;-43
2023/07/31 08:19:59;;;;;;;;;;;17.50;99.90;;;;;;4978985;28;19936;-44
2023/07/31 08:22:26;;;;;;;;;;;17.50;99.90;;;;;;4978840;28;19952;-43
2023/07/31 08:24:52;;;;;;;;;;;17.60;99.90;;;;;;4978430;28;19922;-43
2023/07/31 08:27:20;;;;;;;;;;;17.60;99.90;;;;;;4976639;28;20176;-43
2023/07/31 08:29:46;;;;;;;;;;;17.60;99.90;;;;;;4973613;28;19922;-44
2023/07/31 08:32:13;;;;;;;;;;;17.60;99.90;;;;;;4989109;28;20008;-42
2023/07/31 08:34:41;;;;;;;;;;;17.60;99.90;;;;;;4990705;28;19936;-43
2023/07/31 08:37:08;;;;;;;;;;;17.60;99.90;;;;;;4979282;28;19962;-44
2023/07/31 08:39:35;;;;;;;;;;;17.60;99.90;;;;;;4978931;28;19948;-43
2023/07/31 08:42:01;;;;;;;;;;;17.70;99.90;;;;;;4979511;28;19942;-43
2023/07/31 08:44:28;;;;;;;;;;;17.70;99.90;;;;;;4978262;28;19936;-43
2023/07/31 08:46:55;;;;;;;;;;;17.70;99.90;;;;;;4996611;28;19983;-43
2023/07/31 08:49:21;;;;;;;;;;;17.80;99.90;;;;;;4996689;28;19936;-43
2023/07/31 08:51:50;;;;;;;;;;;17.80;99.90;;;;;;4996366;28;19978;-43
2023/07/31 08:54:16;;;;;;;;;;;17.90;99.90;;;;;;4995420;28;19940;-43
2023/07/31 08:56:43;;;;;;;;;;;17.90;99.90;;;;;;4989321;28;19968;-44
2023/07/31 08:59:10;;;;;;;;;;;17.90;99.90;;;;;;4972521;28;19934;-44
2023/07/31 09:01:37;;;;;;;;;;;17.90;99.90;;;;;;4980893;28;20395;-43
2023/07/31 09:04:04;;;;;;;;;;;17.90;99.90;;;;;;4991176;28;19944;-42
2023/07/31 09:06:30;;;;;;;;;;;17.90;99.90;;;;;;4970244;28;19940;-43
2023/07/31 09:08:58;;;;;;;;;;;18.00;99.90;;;;;;4994202;28;19941;-44
2023/07/31 09:11:25;;;;;;;;;;;18.00;99.90;;;;;;4994390;28;20450;-43
2023/07/31 09:13:52;;;;;;;;;;;18.00;99.90;;;;;;4991546;28;19960;-43
2023/07/31 09:16:18;;;;;;;;;;;18.10;99.90;;;;;;4995142;28;19945;-43
2023/07/31 09:18:56;;;;;;;;;;;18.00;99.90;;;;;;4995285;28;19929;-43
2023/07/31 09:21:23;;;;;;;;;;;18.00;99.90;;;;;;4994668;28;19973;-43
2023/07/31 09:23:52;;;;;;;;;;;18.10;99.90;;;;;;4977206;28;19963;-44
2023/07/31 09:26:33;;;;;;;;;;;18.00;99.90;;;;;;4994628;28;19986;-43
2023/07/31 09:29:00;;;;;;;;;;;18.00;99.90;;;;;;4994392;28;19947;-43
2023/07/31 09:31:33;;;;;;;;;;;18.10;99.90;;;;;;4995886;28;20373;-44
2023/07/31 09:34:00;;;;;;;;;;;18.00;99.90;;;;;;4977833;28;19983;-43
2023/07/31 09:36:29;;;;;;;;;;;18.00;99.90;;;;;;4977415;28;19982;-44
2023/07/31 09:38:56;;;;;;;;;;;18.10;99.90;;;;;;4978490;28;19936;-44
2023/07/31 09:41:23;;;;;;;;;;;18.20;99.90;;;;;;4994288;28;19984;-44
2023/07/31 09:43:55;;;;;;;;;;;18.30;99.90;;;;;;4991205;28;19972;-44
2023/07/31 09:46:22;;;;;;;;;;;18.30;99.90;;;;;;4993569;28;19962;-44
2023/07/31 09:48:48;;;;;;;;;;;18.40;99.90;;;;;;4992484;28;19936;-44
2023/07/31 09:51:15;;;;;;;;;;;18.40;99.90;;;;;;4993987;28;19948;-43
2023/07/31 09:53:42;;;;;;;;;;;18.50;99.90;;;;;;4995602;28;19987;-43
2023/07/31 09:56:08;;;;;;;;;;;18.50;99.90;;;;;;4975647;28;20033;-44
2023/07/31 09:58:35;;;;;;;;;;;18.50;99.90;;;;;;4984392;28;19975;-43
2023/07/31 10:01:03;;;;;;;;;;;18.60;99.90;;;;;;4989366;28;20068;-44
2023/07/31 10:03:30;;;;;;;;;;;18.70;99.90;;;;;;4974345;28;19935;-44
2023/07/31 10:05:57;;;;;;;;;;;18.70;99.90;;;;;;4989568;28;19934;-43
2023/07/31 10:08:24;;;;;;;;;;;18.70;99.90;;;;;;4975573;28;19945;-44
2023/07/31 10:10:51;;;;;;;;;;;18.70;99.90;;;;;;4993543;28;19946;-43
2023/07/31 10:13:18;;;;;;;;;;;18.70;99.90;;;;;;4977777;28;19941;-43
2023/07/31 10:15:44;;;;;;;;;;;18.70;99.90;;;;;;4993364;28;19993;-44
2023/07/31 10:18:12;;;;;;;;;;;18.80;99.90;;;;;;4975344;28;19956;-44
2023/07/31 10:20:39;;;;;;;;;;;18.80;99.90;;;;;;4976519;28;19936;-43
2023/07/31 10:23:06;;;;;;;;;;;18.80;99.90;;;;;;4993555;28;19993;-43
2023/07/31 10:25:32;;;;;;;;;;;18.80;99.90;;;;;;4993649;28;19936;-44
2023/07/31 10:27:59;;;;;;;;;;;18.90;99.90;;;;;;4975053;28;19941;-43
2023/07/31 10:30:27;;;;;;;;;;;18.90;99.90;;;;;;4990747;28;19973;-44
2023/07/31 10:32:53;;;;;;;;;;;19.00;99.90;;;;;;4993233;28;20409;-44
2023/07/31 10:35:22;;;;;;;;;;;19.00;99.90;;;;;;4992854;28;19945;-44
2023/07/31 10:37:48;;;;;;;;;;;19.00;99.90;;;;;;4994551;28;20605;-45
2023/07/31 10:40:16;;;;;;;;;;;19.00;99.90;;;;;;4993651;28;20410;-44
2023/07/31 10:42:47;;;;;;;;;;;19.00;99.90;;;;;;4976175;28;19936;-44
2023/07/31 10:45:13;;;;;;;;;;;19.10;99.90;;;;;;4975827;28;20385;-43
2023/07/31 10:47:43;;;;;;;;;;;19.20;99.90;;;;;;4993382;28;19966;-44
2023/07/31 10:50:19;;;;;;;;;;;19.20;99.90;;;;;;4976412;28;19938;-43
2023/07/31 10:52:51;;;;;;;;;;;19.20;99.90;;;;;;4957552;28;19947;-44
2023/07/31 10:55:28;;;;;;;;;;;19.30;99.90;;;;;;4982642;28;19940;-44
2023/07/31 10:57:55;;;;;;;;;;;19.30;99.90;;;;;;4989634;28;19945;-43
2023/07/31 11:00:22;;;;;;;;;;;19.40;99.90;;;;;;4987693;28;19935;-43
2023/07/31 11:02:59;;;;;;;;;;;19.30;99.90;;;;;;4992984;28;20016;-43
2023/07/31 11:05:44;;;;;;;;;;;19.30;99.90;;;;;;4993482;28;20442;-43
2023/07/31 11:08:13;;;;;;;;;;;19.30;99.90;;;;;;4992465;28;19958;-44
2023/07/31 11:10:39;;;;;;;;;;;19.30;99.90;;;;;;4994141;28;20458;-43
2023/07/31 11:13:06;;;;;;;;;;;19.30;99.90;;;;;;4992755;28;19940;-43
2023/07/31 11:15:33;;;;;;;;;;;19.30;99.90;;;;;;4994094;28;19936;-44
2023/07/31 11:18:03;;;;;;;;;;;19.20;99.90;;;;;;4992685;28;20729;-44
2023/07/31 11:20:30;;;;;;;;;;;19.20;99.90;;;;;;4971917;28;19950;-43
2023/07/31 11:22:58;;;;;;;;;;;19.30;99.90;;;;;;4989918;28;19941;-42
2023/07/31 11:25:27;;;;;;;;;;;19.20;99.90;;;;;;4989484;28;20492;-43
2023/07/31 11:27:54;;;;;;;;;;;19.30;99.90;;;;;;4992670;28;19936;-44
2023/07/31 11:30:21;;;;;;;;;;;19.30;99.90;;;;;;4990597;28;20401;-43
2023/07/31 11:32:47;;;;;;;;;;;19.30;99.90;;;;;;4992696;28;20358;-44
2023/07/31 11:35:14;;;;;;;;;;;19.40;99.90;;;;;;4992247;28;19941;-43
2023/07/31 11:37:41;;;;;;;;;;;19.30;99.90;;;;;;4992107;28;19952;-44
2023/07/31 11:40:08;;;;;;;;;;;19.50;99.90;;;;;;4976389;28;20346;-44
2023/07/31 11:42:36;;;;;;;;;;;19.50;99.90;;;;;;4991697;28;20347;-44
2023/07/31 11:45:03;;;;;;;;;;;19.70;99.90;;;;;;4992053;28;20403;-43
2023/07/31 11:47:31;;;;;;;;;;;19.80;99.90;;;;;;4992231;28;20003;-43
2023/07/31 11:49:58;;;;;;;;;;;19.90;99.90;;;;;;4993428;28;19943;-44
2023/07/31 11:52:24;;;;;;;;;;;19.90;99.90;;;;;;4991801;28;19944;-43
2023/07/31 11:54:51;;;;;;;;;;;20.00;99.90;;;;;;4992349;28;19936;-43
2023/07/31 11:57:18;;;;;;;;;;;20.10;99.90;;;;;;4974741;28;20360;-43
2023/07/31 11:59:46;;;;;;;;;;;20.30;99.90;;;;;;4992460;28;19936;-43
2023/07/31 12:02:13;;;;;;;;;;;20.40;99.90;;;;;;4975421;28;19948;-43
2023/07/31 12:04:40;;;;;;;;;;;20.40;99.90;;;;;;4974228;28;19961;-43
2023/07/31 12:07:06;;;;;;;;;;;20.40;99.90;;;;;;4992370;28;20341;-43
2023/07/31 12:09:39;;;;;;;;;;;20.40;99.90;;;;;;4974866;28;19986;-44
2023/07/31 12:12:08;;;;;;;;;;;20.50;99.90;;;;;;4992088;28;19941;-43
2023/07/31 12:14:35;;;;;;;;;;;20.40;99.90;;;;;;4993061;28;19943;-44
2023/07/31 12:17:04;;;;;;;;;;;20.50;99.90;;;;;;4991491;28;19976;-43
2023/07/31 12:19:31;;;;;;;;;;;20.30;99.90;;;;;;4973031;28;19932;-43
2023/07/31 12:21:58;;;;;;;;;;;20.20;99.90;;;;;;4991410;28;19937;-43
2023/07/31 12:24:24;;;;;;;;;;;20.10;99.90;;;;;;4992324;28;19944;-44
2023/07/31 12:26:52;;;;;;;;;;;20.00;99.90;;;;;;4973530;28;19941;-44
2023/07/31 12:29:19;;;;;;;;;;;19.90;99.90;;;;;;4988254;28;19936;-43
2023/07/31 12:31:45;;;;;;;;;;;19.90;99.90;;;;;;4991615;28;20033;-44
2023/07/31 12:34:18;;;;;;;;;;;19.90;99.90;;;;;;4974638;28;19942;-43
2023/07/31 12:36:45;;;;;;;;;;;20.00;99.90;;;;;;4991633;28;20050;-44
2023/07/31 12:39:11;;;;;;;;;;;20.00;99.90;;;;;;4992850;28;20014;-44
2023/07/31 12:41:38;;;;;;;;;;;20.00;99.90;;;;;;4957112;28;19999;-43
2023/07/31 12:44:05;;;;;;;;;;;20.00;99.90;;;;;;4986493;28;19952;-44
2023/07/31 12:46:31;;;;;;;;;;;20.00;99.90;;;;;;4991063;28;19964;-44
2023/07/31 12:48:58;;;;;;;;;;;19.90;99.90;;;;;;4974491;28;20362;-43
2023/07/31 12:51:26;;;;;;;;;;;19.90;99.90;;;;;;4975335;28;20068;-44
2023/07/31 12:53:53;;;;;;;;;;;19.90;99.90;;;;;;4992216;28;19961;-44
2023/07/31 12:56:19;;;;;;;;;;;19.90;99.90;;;;;;4992626;28;20357;-44
2023/07/31 12:58:46;;;;;;;;;;;19.90;99.90;;;;;;4992379;28;20373;-43
2023/07/31 13:01:13;;;;;;;;;;;20.10;99.90;;;;;;4978504;28;19989;-43
2023/07/31 13:03:39;;;;;;;;;;;20.20;99.90;;;;;;4977481;28;20365;-44
2023/07/31 13:06:06;;;;;;;;;;;20.40;99.90;;;;;;4994843;28;19942;-43
2023/07/31 13:08:34;;;;;;;;;;;20.50;99.90;;;;;;4995142;28;19954;-43
2023/07/31 13:11:01;;;;;;;;;;;20.40;99.90;;;;;;4995252;28;19942;-43
2023/07/31 13:13:28;;;;;;;;;;;20.50;99.90;;;;;;4979111;28;19925;-44
2023/07/31 13:15:55;;;;;;;;;;;20.50;99.90;;;;;;4994797;28;19934;-44
2023/07/31 13:18:21;;;;;;;;;;;20.50;99.90;;;;;;4977570;28;19948;-44
2023/07/31 13:20:48;;;;;;;;;;;20.60;99.90;;;;;;4977771;28;19972;-44
2023/07/31 13:23:15;;;;;;;;;;;20.60;99.90;;;;;;4994421;28;19973;-44
2023/07/31 13:25:43;;;;;;;;;;;20.60;99.90;;;;;;4992237;28;19922;-43
2023/07/31 13:28:10;;;;;;;;;;;20.60;99.90;;;;;;4977457;28;19942;-43
2023/07/31 13:30:37;;;;;;;;;;;20.60;99.90;;;;;;4977929;28;20455;-43
2023/07/31 13:33:03;;;;;;;;;;;20.60;99.90;;;;;;4994190;28;19938;-43
2023/07/31 13:35:31;;;;;;;;;;;20.50;99.90;;;;;;4994501;28;19936;-43
2023/07/31 13:37:58;;;;;;;;;;;20.50;99.90;;;;;;4995532;28;20012;-44
2023/07/31 13:40:24;;;;;;;;;;;20.50;99.90;;;;;;4994660;28;19956;-44
2023/07/31 13:42:54;;;;;;;;;;;20.40;99.90;;;;;;4994869;28;19960;-44
2023/07/31 13:45:20;;;;;;;;;;;20.50;99.90;;;;;;4994198;28;19962;-43
2023/07/31 13:47:47;;;;;;;;;;;20.50;99.90;;;;;;4994457;28;20403;-43
2023/07/31 13:50:14;;;;;;;;;;;20.60;99.90;;;;;;4977772;28;20072;-43
2023/07/31 13:52:40;;;;;;;;;;;20.60;99.90;;;;;;4995395;28;19959;-43
2023/07/31 13:55:08;;;;;;;;;;;20.70;99.90;;;;;;4993955;28;19940;-44
2023/07/31 13:57:34;;;;;;;;;;;20.70;99.90;;;;;;4994445;28;19979;-43
2023/07/31 14:00:04;;;;;;;;;;;20.80;99.90;;;;;;4993904;28;20416;-43
2023/07/31 14:02:31;;;;;;;;;;;20.90;99.90;;;;;;4977949;28;20325;-43
2023/07/31 14:04:57;;;;;;;;;;;20.90;99.90;;;;;;4994703;28;20030;-43
2023/07/31 14:07:24;;;;;;;;;;;20.90;99.90;;;;;;4993876;28;19936;-44
2023/07/31 14:09:51;;;;;;;;;;;20.90;99.90;;;;;;4994214;28;19970;-44
2023/07/31 14:12:17;;;;;;;;;;;20.80;99.90;;;;;;4976758;28;20285;-44
2023/07/31 14:14:44;;;;;;;;;;;20.90;99.90;;;;;;4993666;28;20322;-43
2023/07/31 14:17:12;;;;;;;;;;;20.80;99.90;;;;;;4994724;28;20365;-43